createdAt,value
2022-10-24T00:00:04.953Z,9.747407
2022-10-24T00:01:04.847Z,9.747329
2022-10-24T00:02:04.847Z,9.747438
2022-10-24T00:03:04.880Z,9.747443
2022-10-24T00:05:04.821Z,9.747419
2022-10-24T00:06:04.835Z,9.747376
2022-10-24T00:07:04.805Z,9.747398
2022-10-24T00:08:04.803Z,9.747340
2022-10-24T00:09:04.807Z,9.747324
2022-10-24T00:10:04.781Z,9.747619
2022-10-24T00:11:04.795Z,9.747494
2022-10-24T00:12:04.763Z,9.747300
2022-10-24T00:13:04.767Z,9.747450
2022-10-24T00:14:04.749Z,9.747486
2022-10-24T00:15:04.747Z,9.747448
2022-10-24T00:16:04.776Z,9.747511
2022-10-24T00:17:04.721Z,9.747568
2022-10-24T00:18:05.289Z,9.747444
2022-10-24T00:19:04.742Z,9.747503
2022-10-24T00:20:04.730Z,9.747455
2022-10-24T00:21:04.722Z,9.747536
2022-10-24T00:22:04.690Z,9.747451
2022-10-24T00:23:04.686Z,9.747401
2022-10-24T00:24:04.693Z,9.747337
2022-10-24T00:25:04.663Z,9.747300
2022-10-24T00:26:04.681Z,9.747352
2022-10-24T00:27:04.658Z,9.747447
2022-10-24T00:28:04.653Z,9.747347
2022-10-24T00:29:04.649Z,9.747563
2022-10-24T00:30:04.641Z,9.747448
2022-10-24T00:31:04.648Z,9.747281
2022-10-24T00:32:04.619Z,9.747319
2022-10-24T00:33:04.604Z,9.747364
2022-10-24T00:34:04.600Z,9.747442
2022-10-24T00:35:04.589Z,9.747375
2022-10-24T00:36:04.611Z,9.747259
2022-10-24T00:37:04.581Z,9.747261
2022-10-24T00:38:04.572Z,9.747436
2022-10-24T00:39:04.561Z,9.747408
2022-10-24T00:40:04.593Z,9.747323
2022-10-24T00:41:04.570Z,9.747160
2022-10-24T00:42:04.542Z,9.747162
2022-10-24T00:43:04.528Z,9.747293
2022-10-24T00:44:04.524Z,9.747252
2022-10-24T00:45:04.515Z,9.747273
2022-10-24T00:46:04.539Z,9.747398
2022-10-24T00:47:04.512Z,9.747375
2022-10-24T00:48:04.498Z,9.747277
2022-10-24T00:49:04.486Z,9.747267
2022-10-24T00:50:04.477Z,9.747250
2022-10-24T00:51:04.517Z,9.747334
2022-10-24T00:52:04.483Z,9.747150
2022-10-24T00:53:04.491Z,9.747294
2022-10-24T00:54:04.449Z,9.747280
2022-10-24T00:55:04.441Z,9.747330
2022-10-24T00:56:04.448Z,9.747261
2022-10-24T00:57:04.415Z,9.747375
2022-10-24T00:58:04.437Z,9.747350
2022-10-24T00:59:04.414Z,9.747279
2022-10-24T01:00:04.403Z,9.747514
2022-10-24T01:01:04.519Z,9.747510
2022-10-24T01:02:04.462Z,9.747485
2022-10-24T01:03:04.368Z,9.747537
2022-10-24T01:04:04.367Z,9.747555
2022-10-24T01:05:04.351Z,9.747478
2022-10-24T01:06:04.372Z,9.747417
2022-10-24T01:07:04.340Z,9.747412
2022-10-24T01:08:04.331Z,9.747480
2022-10-24T01:09:04.326Z,9.747416
2022-10-24T01:10:04.312Z,9.747473
2022-10-24T01:11:04.335Z,9.747541
2022-10-24T01:12:04.295Z,9.747492
2022-10-24T01:13:04.291Z,9.747256
2022-10-24T01:14:04.278Z,9.747412
2022-10-24T01:15:04.313Z,9.747272
2022-10-24T01:16:04.301Z,9.747332
2022-10-24T01:17:04.262Z,9.747371
2022-10-24T01:18:04.259Z,9.747360
2022-10-24T01:19:04.248Z,9.747257
2022-10-24T01:20:04.237Z,9.747334
2022-10-24T01:21:04.256Z,9.747409
2022-10-24T01:22:05.815Z,9.747334
2022-10-24T01:23:05.307Z,9.747355
2022-10-24T01:24:05.050Z,9.747252
2022-10-24T01:25:04.300Z,9.747367
2022-10-24T01:26:06.868Z,9.747433
2022-10-24T01:27:04.884Z,9.747456
2022-10-24T01:28:05.898Z,9.747457
2022-10-24T01:29:07.810Z,9.747476
2022-10-24T01:30:04.887Z,9.747422
2022-10-24T01:31:05.056Z,9.747406
2022-10-24T01:32:07.310Z,9.747302
2022-10-24T01:33:06.814Z,9.747395
2022-10-24T01:34:12.048Z,9.747412
2022-10-24T01:35:07.857Z,9.747301
2022-10-24T01:36:06.825Z,9.747263
2022-10-24T01:37:06.047Z,9.747447
2022-10-24T01:38:08.818Z,9.747439
2022-10-24T01:39:04.819Z,9.747447
2022-10-24T01:40:05.311Z,9.747470
2022-10-24T01:41:05.958Z,9.747361
2022-10-24T01:42:04.826Z,9.747406
2022-10-24T01:43:07.815Z,9.747446
2022-10-24T01:44:06.891Z,9.747425
2022-10-24T01:45:06.841Z,9.747476
2022-10-24T01:46:05.155Z,9.747509
2022-10-24T01:47:04.875Z,9.747419
2022-10-24T01:48:05.821Z,9.747422
2022-10-24T01:49:06.390Z,9.747378
2022-10-24T01:50:08.021Z,9.747456
2022-10-24T01:51:05.316Z,9.747451
2022-10-24T01:52:04.275Z,9.747463
2022-10-24T01:53:05.892Z,9.747418
2022-10-24T01:54:05.864Z,9.747445
2022-10-24T01:55:04.079Z,9.747458
2022-10-24T01:56:04.914Z,9.747401
2022-10-24T01:57:06.816Z,9.747435
2022-10-24T01:58:04.552Z,9.747426
2022-10-24T01:59:06.839Z,9.747482
2022-10-24T02:00:05.903Z,9.747424
2022-10-24T02:01:06.428Z,9.747368
2022-10-24T02:02:08.319Z,9.747393
2022-10-24T02:03:04.001Z,9.747352
2022-10-24T02:04:04.914Z,9.747309
2022-10-24T02:05:23.853Z,9.747401
2022-10-24T02:06:07.320Z,9.747375
2022-10-24T02:07:04.133Z,9.747423
2022-10-24T02:08:05.321Z,9.747386
2022-10-24T02:10:04.893Z,9.747494
2022-10-24T02:11:05.085Z,9.747531
2022-10-24T02:12:06.826Z,9.747456
2022-10-24T02:13:07.387Z,9.747432
2022-10-24T02:14:04.577Z,9.747482
2022-10-24T02:15:05.354Z,9.747467
2022-10-24T02:16:07.323Z,9.747451
2022-10-24T02:17:04.483Z,9.747506
2022-10-24T02:18:04.900Z,9.747513
2022-10-24T02:19:05.324Z,9.747445
2022-10-24T02:20:05.389Z,9.747522
2022-10-24T02:21:05.336Z,9.747489
2022-10-24T02:22:05.324Z,9.747485
2022-10-24T02:23:08.381Z,9.747481
2022-10-24T02:24:04.907Z,9.747599
2022-10-24T02:25:06.338Z,9.747514
2022-10-24T02:26:04.562Z,9.747426
2022-10-24T02:27:04.525Z,9.747491
2022-10-24T02:28:06.825Z,9.747530
2022-10-24T02:29:05.563Z,9.747579
2022-10-24T02:30:03.830Z,9.747462
2022-10-24T02:31:04.325Z,9.747479
2022-10-24T02:32:04.565Z,9.747587
2022-10-24T02:33:05.389Z,9.747594
2022-10-24T02:34:03.694Z,9.747438
2022-10-24T02:35:03.670Z,9.747497
2022-10-24T02:36:03.660Z,9.747415
2022-10-24T02:37:03.646Z,9.747396
2022-10-24T02:38:03.661Z,9.747443
2022-10-24T02:39:03.624Z,9.747540
2022-10-24T02:40:03.617Z,9.747375
2022-10-24T02:41:03.620Z,9.747479
2022-10-24T02:42:03.606Z,9.747416
2022-10-24T02:43:03.625Z,9.747508
2022-10-24T02:44:03.591Z,9.747593
2022-10-24T02:45:03.585Z,9.747544
2022-10-24T02:46:03.575Z,9.747482
2022-10-24T02:47:03.575Z,9.747485
2022-10-24T02:48:03.587Z,9.747523
2022-10-24T02:49:03.551Z,9.747594
2022-10-24T02:50:03.542Z,9.747498
2022-10-24T02:51:03.549Z,9.747478
2022-10-24T02:52:03.531Z,9.747460
2022-10-24T02:53:03.552Z,9.747464
2022-10-24T02:54:03.522Z,9.747404
2022-10-24T02:55:03.514Z,9.747445
2022-10-24T02:56:03.496Z,9.747394
2022-10-24T02:57:03.491Z,9.747352
2022-10-24T02:58:03.508Z,9.747379
2022-10-24T02:59:03.526Z,9.747426
2022-10-24T03:00:03.481Z,9.747368
2022-10-24T03:01:03.568Z,9.747365
2022-10-24T03:02:03.455Z,9.747471
2022-10-24T03:03:03.467Z,9.747258
2022-10-24T03:04:03.438Z,9.747292
2022-10-24T03:05:03.434Z,9.747345
2022-10-24T03:06:03.419Z,9.747301
2022-10-24T03:07:03.438Z,9.747306
2022-10-24T03:08:03.418Z,9.747408
2022-10-24T03:09:03.419Z,9.747435
2022-10-24T03:10:03.386Z,9.747496
2022-10-24T03:11:03.392Z,9.747314
2022-10-24T03:12:03.411Z,9.747264
2022-10-24T03:13:03.387Z,9.747374
2022-10-24T03:14:03.377Z,9.747458
2022-10-24T03:15:03.355Z,9.747534
2022-10-24T03:16:03.346Z,9.747473
2022-10-24T03:17:03.375Z,9.747489
2022-10-24T03:18:03.340Z,9.747556
2022-10-24T03:19:03.325Z,9.747499
2022-10-24T03:20:03.324Z,9.747465
2022-10-24T03:21:03.333Z,9.747633
2022-10-24T03:22:03.331Z,9.747368
2022-10-24T03:23:03.296Z,9.747463
2022-10-24T03:24:03.337Z,9.747445
2022-10-24T03:25:03.272Z,9.747442
2022-10-24T03:26:03.270Z,9.747360
2022-10-24T03:27:03.260Z,9.747481
2022-10-24T03:28:03.273Z,9.747523
2022-10-24T03:29:03.237Z,9.747462
2022-10-24T03:30:03.249Z,9.747399
2022-10-24T03:31:03.227Z,9.747418
2022-10-24T03:32:03.218Z,9.747573
2022-10-24T03:33:03.228Z,9.747398
2022-10-24T03:34:03.200Z,9.747491
2022-10-24T03:35:03.200Z,9.747575
2022-10-24T03:36:03.184Z,9.747506
2022-10-24T03:37:03.187Z,9.747444
2022-10-24T03:38:03.197Z,9.747418
2022-10-24T03:39:03.162Z,9.747358
2022-10-24T03:40:03.192Z,9.747658
2022-10-24T03:41:03.154Z,9.747495
2022-10-24T03:42:03.140Z,9.747478
2022-10-24T03:43:03.162Z,9.747648
2022-10-24T03:44:03.135Z,9.747470
2022-10-24T03:45:03.117Z,9.747575
2022-10-24T03:46:03.110Z,9.747538
2022-10-24T03:47:03.130Z,9.747383
2022-10-24T03:48:03.121Z,9.747411
2022-10-24T03:49:03.106Z,9.747405
2022-10-24T03:50:03.090Z,9.747501
2022-10-24T03:51:03.071Z,9.747525
2022-10-24T03:52:03.067Z,9.747472
2022-10-24T03:53:03.196Z,9.747408
2022-10-24T03:54:03.098Z,9.747454
2022-10-24T03:55:03.036Z,9.747372
2022-10-24T03:56:03.038Z,9.747500
2022-10-24T03:57:03.035Z,9.747501
2022-10-24T03:58:03.059Z,9.747504
2022-10-24T03:59:03.349Z,9.747405
2022-10-24T04:00:03.198Z,9.747432
2022-10-24T04:01:03.145Z,9.747498
2022-10-24T04:02:03.056Z,9.747500
2022-10-24T04:03:03.001Z,9.747443
2022-10-24T04:04:03.080Z,9.747489
2022-10-24T04:05:02.969Z,9.747453
2022-10-24T04:06:02.960Z,9.747504
2022-10-24T04:07:03.200Z,9.747508
2022-10-24T04:08:02.972Z,9.747457
2022-10-24T04:09:02.937Z,9.747543
2022-10-24T04:10:02.934Z,9.747494
2022-10-24T04:11:02.942Z,9.747428
2022-10-24T04:12:02.924Z,9.747458
2022-10-24T04:13:03.389Z,9.747466
2022-10-24T04:15:04.978Z,9.747536
2022-10-24T04:16:03.889Z,9.747442
2022-10-24T04:17:02.873Z,9.747401
2022-10-24T04:18:02.896Z,9.747402
2022-10-24T04:19:02.850Z,9.747440
2022-10-24T04:20:02.850Z,9.747436
2022-10-24T04:21:02.846Z,9.747540
2022-10-24T04:22:02.829Z,9.747533
2022-10-24T04:23:04.510Z,9.747537
2022-10-24T04:24:02.822Z,9.747611
2022-10-24T04:25:02.813Z,9.747431
2022-10-24T04:26:02.802Z,9.747324
2022-10-24T04:27:02.807Z,9.747409
2022-10-24T04:28:02.786Z,9.747362
2022-10-24T04:29:02.835Z,9.747489
2022-10-24T04:30:02.774Z,9.747517
2022-10-24T04:31:02.767Z,9.747398
2022-10-24T04:32:02.760Z,9.747357
2022-10-24T04:33:02.782Z,9.747385
2022-10-24T04:34:02.743Z,9.747309
2022-10-24T04:35:02.735Z,9.747334
2022-10-24T04:36:02.726Z,9.747396
2022-10-24T04:37:02.713Z,9.747518
2022-10-24T04:38:02.751Z,9.747367
2022-10-24T04:39:02.706Z,9.747398
2022-10-24T04:40:02.735Z,9.747540
2022-10-24T04:41:02.689Z,9.747504
2022-10-24T04:42:02.684Z,9.747453
2022-10-24T04:43:02.679Z,9.747442
2022-10-24T04:44:02.693Z,9.747451
2022-10-24T04:45:02.665Z,9.747485
2022-10-24T04:46:02.654Z,9.747445
2022-10-24T04:47:02.646Z,9.747501
2022-10-24T04:48:02.638Z,9.747534
2022-10-24T04:49:02.655Z,9.747540
2022-10-24T04:50:02.624Z,9.747396
2022-10-24T04:51:02.621Z,9.747516
2022-10-24T04:52:02.602Z,9.747519
2022-10-24T04:53:02.597Z,9.747481
2022-10-24T04:54:02.610Z,9.747497
2022-10-24T04:55:02.580Z,9.747391
2022-10-24T04:56:02.578Z,9.747419
2022-10-24T04:57:02.569Z,9.747464
2022-10-24T04:58:02.572Z,9.747533
2022-10-24T04:59:02.576Z,9.747447
2022-10-24T05:00:02.545Z,9.747475
2022-10-24T05:01:02.603Z,9.747477
2022-10-24T05:02:02.642Z,9.747392
2022-10-24T05:03:02.525Z,9.747588
2022-10-24T05:05:02.510Z,9.747463
2022-10-24T05:06:02.513Z,9.747418
2022-10-24T05:07:02.492Z,9.747470
2022-10-24T05:08:02.483Z,9.747458
2022-10-24T05:09:02.500Z,9.747403
2022-10-24T05:10:02.504Z,9.747400
2022-10-24T05:11:02.465Z,9.747489
2022-10-24T05:12:02.469Z,9.747564
2022-10-24T05:13:02.472Z,9.747466
2022-10-24T05:14:02.462Z,9.747458
2022-10-24T05:15:02.440Z,9.747506
2022-10-24T05:16:02.421Z,9.747450
2022-10-24T05:17:02.414Z,9.747466
2022-10-24T05:18:02.414Z,9.747412
2022-10-24T05:19:02.423Z,9.747424
2022-10-24T05:20:02.391Z,9.747399
2022-10-24T05:21:02.385Z,9.747446
2022-10-24T05:22:04.017Z,9.747561
2022-10-24T05:23:02.366Z,9.747404
2022-10-24T05:24:02.383Z,9.747478
2022-10-24T05:25:02.364Z,9.747499
2022-10-24T05:26:02.341Z,9.747498
2022-10-24T05:27:02.334Z,9.747375
2022-10-24T05:28:02.323Z,9.747401
2022-10-24T05:29:02.384Z,9.747416
2022-10-24T05:30:02.307Z,9.747421
2022-10-24T05:31:02.300Z,9.747497
2022-10-24T05:32:02.291Z,9.747440
2022-10-24T05:33:02.284Z,9.747454
2022-10-24T05:34:02.306Z,9.747486
2022-10-24T05:35:02.270Z,9.747418
2022-10-24T05:36:02.258Z,9.747499
2022-10-24T05:37:02.247Z,9.747519
2022-10-24T05:38:02.251Z,9.747349
2022-10-24T05:39:02.256Z,9.747343
2022-10-24T05:40:02.294Z,9.747436
2022-10-24T05:41:02.220Z,9.747360
2022-10-24T05:42:02.212Z,9.747506
2022-10-24T05:43:02.209Z,9.747452
2022-10-24T05:44:02.220Z,9.747327
2022-10-24T05:45:02.190Z,9.747357
2022-10-24T05:46:02.182Z,9.747534
2022-10-24T05:47:02.173Z,9.747499
2022-10-24T05:48:02.273Z,9.747500
2022-10-24T05:49:02.180Z,9.747380
2022-10-24T05:50:02.151Z,9.747395
2022-10-24T05:51:02.157Z,9.747348
2022-10-24T05:52:02.148Z,9.747367
2022-10-24T05:53:02.133Z,9.747440
2022-10-24T05:54:02.237Z,9.747419
2022-10-24T05:55:07.269Z,9.747388
2022-10-24T05:56:04.105Z,9.747336
2022-10-24T05:57:02.097Z,9.747495
2022-10-24T05:58:02.087Z,9.747438
2022-10-24T05:59:02.114Z,9.747367
2022-10-24T06:00:02.118Z,9.747396
2022-10-24T06:01:02.135Z,9.747378
2022-10-24T06:02:02.158Z,9.747429
2022-10-24T06:03:02.077Z,9.747623
2022-10-24T06:04:02.051Z,9.747492
2022-10-24T06:05:02.062Z,9.747405
2022-10-24T06:06:02.032Z,9.747376
2022-10-24T06:07:02.022Z,9.747531
2022-10-24T06:08:02.017Z,9.747539
2022-10-24T06:09:02.044Z,9.747481
2022-10-24T06:10:01.997Z,9.747351
2022-10-24T06:11:01.997Z,9.747353
2022-10-24T06:12:01.988Z,9.747457
2022-10-24T06:13:01.978Z,9.747499
2022-10-24T06:14:02.001Z,9.747496
2022-10-24T06:15:01.960Z,9.747398
2022-10-24T06:16:01.959Z,9.747356
2022-10-24T06:17:01.955Z,9.747281
2022-10-24T06:18:02.945Z,9.747247
2022-10-24T06:19:01.925Z,9.747355
2022-10-24T06:20:01.958Z,9.747372
2022-10-24T06:21:01.915Z,9.747227
2022-10-24T06:22:01.903Z,9.747095
2022-10-24T06:23:01.891Z,9.747356
2022-10-24T06:24:02.890Z,9.747394
2022-10-24T06:25:01.915Z,9.747316
2022-10-24T06:26:01.878Z,9.747416
2022-10-24T06:27:01.865Z,9.747442
2022-10-24T06:28:01.911Z,9.747411
2022-10-24T06:29:01.878Z,9.747362
2022-10-24T06:30:01.867Z,9.747422
2022-10-24T06:31:02.869Z,9.747383
2022-10-24T06:32:01.839Z,9.747336
2022-10-24T06:33:01.824Z,9.747366
2022-10-24T06:34:01.839Z,9.747393
2022-10-24T06:35:01.817Z,9.747353
2022-10-24T06:36:01.813Z,9.747399
2022-10-24T06:37:01.799Z,9.747502
2022-10-24T06:38:01.792Z,9.747502
2022-10-24T06:39:01.812Z,9.747410
2022-10-24T06:40:01.773Z,9.747438
2022-10-24T06:41:01.764Z,9.747473
2022-10-24T06:42:01.755Z,9.747461
2022-10-24T06:43:01.752Z,9.747385
2022-10-24T06:44:01.764Z,9.747346
2022-10-24T06:45:01.735Z,9.747452
2022-10-24T06:46:01.727Z,9.747493
2022-10-24T06:47:01.720Z,9.747450
2022-10-24T06:48:01.708Z,9.747420
2022-10-24T06:49:01.701Z,9.747356
2022-10-24T06:50:01.724Z,9.747382
2022-10-24T06:51:01.705Z,9.747315
2022-10-24T06:52:01.678Z,9.747352
2022-10-24T06:53:01.689Z,9.747362
2022-10-24T06:54:01.665Z,9.747411
2022-10-24T06:55:01.684Z,9.747375
2022-10-24T06:56:01.648Z,9.747400
2022-10-24T06:57:01.667Z,9.747330
2022-10-24T06:58:01.635Z,9.747350
2022-10-24T06:59:02.492Z,9.747408
2022-10-24T07:00:01.663Z,9.747448
2022-10-24T07:01:01.732Z,9.747394
2022-10-24T07:02:04.933Z,9.747255
2022-10-24T07:03:02.591Z,9.747160
2022-10-24T07:04:01.586Z,9.747302
2022-10-24T07:05:01.607Z,9.747213
2022-10-24T07:06:01.577Z,9.747265
2022-10-24T07:07:01.571Z,9.747399
2022-10-24T07:08:01.560Z,9.747468
2022-10-24T07:09:01.554Z,9.747431
2022-10-24T07:10:01.570Z,9.747419
2022-10-24T07:11:01.541Z,9.747393
2022-10-24T07:12:01.566Z,9.747396
2022-10-24T07:13:01.528Z,9.747427
2022-10-24T07:14:03.433Z,9.747413
2022-10-24T07:15:01.540Z,9.747293
2022-10-24T07:16:01.513Z,9.747380
2022-10-24T07:17:01.495Z,9.747328
2022-10-24T07:18:01.494Z,9.747435
2022-10-24T07:19:01.479Z,9.747396
2022-10-24T07:20:01.493Z,9.747375
2022-10-24T07:21:01.470Z,9.747429
2022-10-24T07:22:01.474Z,9.747495
2022-10-24T07:23:01.449Z,9.747467
2022-10-24T07:24:01.463Z,9.747483
2022-10-24T07:25:01.433Z,9.747457
2022-10-24T07:26:01.415Z,9.747478
2022-10-24T07:27:01.414Z,9.747467
2022-10-24T07:28:01.408Z,9.747445
2022-10-24T07:30:04.780Z,9.747432
2022-10-24T07:31:01.386Z,9.747420
2022-10-24T07:32:01.394Z,9.747397
2022-10-24T07:33:01.368Z,9.747409
2022-10-24T07:34:01.405Z,9.747469
2022-10-24T07:35:01.350Z,9.747418
2022-10-24T07:36:01.349Z,9.747457
2022-10-24T07:37:01.335Z,9.747442
2022-10-24T07:38:01.337Z,9.747432
2022-10-24T07:39:01.331Z,9.747352
2022-10-24T07:40:01.354Z,9.747414
2022-10-24T07:41:01.314Z,9.747354
2022-10-24T07:42:01.301Z,9.747371
2022-10-24T07:43:01.295Z,9.747410
2022-10-24T07:44:01.297Z,9.747460
2022-10-24T07:45:01.312Z,9.747499
2022-10-24T07:47:02.262Z,9.747360
2022-10-24T07:48:01.259Z,9.747343
2022-10-24T07:49:02.242Z,9.747421
2022-10-24T07:50:01.278Z,9.747451
2022-10-24T07:51:01.241Z,9.747457
2022-10-24T07:52:01.234Z,9.747490
2022-10-24T07:53:01.216Z,9.747479
2022-10-24T07:54:01.240Z,9.747419
2022-10-24T07:55:01.203Z,9.747396
2022-10-24T07:56:01.188Z,9.747376
2022-10-24T07:57:01.178Z,9.747385
2022-10-24T07:58:01.175Z,9.747301
2022-10-24T07:59:05.882Z,9.747375
2022-10-24T08:00:03.198Z,9.747335
2022-10-24T08:01:01.206Z,9.747419
2022-10-24T08:02:01.178Z,9.747451
2022-10-24T08:03:01.138Z,9.747303
2022-10-24T08:04:01.157Z,9.747219
2022-10-24T08:05:01.641Z,9.747300
2022-10-24T08:06:01.115Z,9.747324
2022-10-24T08:07:01.109Z,9.747237
2022-10-24T08:08:21.724Z,9.747269
2022-10-24T08:09:03.118Z,9.747288
2022-10-24T08:10:01.084Z,9.747327
2022-10-24T08:12:02.069Z,9.747356
2022-10-24T08:13:01.064Z,9.747450
2022-10-24T08:14:01.098Z,9.747320
2022-10-24T08:15:01.046Z,9.747328
2022-10-24T08:16:01.030Z,9.747305
2022-10-24T08:17:01.023Z,9.747318
2022-10-24T08:18:01.026Z,9.747332
2022-10-24T08:19:01.030Z,9.747414
2022-10-24T08:20:02.015Z,9.747470
2022-10-24T08:21:00.995Z,9.747368
2022-10-24T08:22:00.990Z,9.747359
2022-10-24T08:23:00.980Z,9.747330
2022-10-24T08:24:00.974Z,9.747354
2022-10-24T08:25:00.986Z,9.747347
2022-10-24T08:26:00.955Z,9.747267
2022-10-24T08:27:00.948Z,9.747317
2022-10-24T08:28:02.824Z,9.747338
2022-10-24T08:29:00.931Z,9.747278
2022-10-24T08:30:00.961Z,9.747311
2022-10-24T08:31:00.921Z,9.747431
2022-10-24T08:32:00.910Z,9.747267
2022-10-24T08:33:00.905Z,9.747281
2022-10-24T08:34:00.957Z,9.747307
2022-10-24T08:35:00.916Z,9.747397
2022-10-24T08:36:00.915Z,9.747412
2022-10-24T08:37:00.876Z,9.747352
2022-10-24T08:38:00.872Z,9.747334
2022-10-24T08:39:00.866Z,9.747373
2022-10-24T08:40:00.875Z,9.747657
2022-10-24T08:41:00.847Z,9.747460
2022-10-24T08:42:00.837Z,9.747312
2022-10-24T08:43:00.828Z,9.747340
2022-10-24T08:44:00.819Z,9.747318
2022-10-24T08:45:00.840Z,9.747287
2022-10-24T08:46:00.816Z,9.747216
2022-10-24T08:47:00.806Z,9.747242
2022-10-24T08:48:00.803Z,9.747232
2022-10-24T08:49:00.792Z,9.747322
2022-10-24T08:50:00.806Z,9.747319
2022-10-24T08:51:00.769Z,9.747257
2022-10-24T08:52:00.757Z,9.747198
2022-10-24T08:53:00.759Z,9.747216
2022-10-24T08:54:00.748Z,9.747239
2022-10-24T08:55:04.956Z,9.747240
2022-10-24T08:56:02.733Z,9.747213
2022-10-24T08:57:00.721Z,9.747168
2022-10-24T08:58:00.713Z,9.747219
2022-10-24T08:59:00.704Z,9.747114
2022-10-24T09:00:00.734Z,9.747227
2022-10-24T09:01:00.796Z,9.747304
2022-10-24T09:02:03.541Z,9.747265
2022-10-24T09:03:00.701Z,9.747217
2022-10-24T09:04:00.666Z,9.747241
2022-10-24T09:05:00.684Z,9.747254
2022-10-24T09:06:00.646Z,9.747196
2022-10-24T09:07:00.639Z,9.747252
2022-10-24T09:08:00.637Z,9.747360
2022-10-24T09:09:00.640Z,9.747379
2022-10-24T09:10:00.646Z,9.747214
2022-10-24T09:11:00.613Z,9.747208
2022-10-24T09:12:00.610Z,9.747175
2022-10-24T09:13:00.598Z,9.746898
2022-10-24T09:14:00.603Z,9.747037
2022-10-24T09:15:00.613Z,9.747190
2022-10-24T09:16:00.583Z,9.747267
2022-10-24T09:17:00.569Z,9.747303
2022-10-24T09:18:00.564Z,9.747383
2022-10-24T09:19:00.572Z,9.747219
2022-10-24T09:20:00.587Z,9.747040
2022-10-24T09:21:00.565Z,9.747225
2022-10-24T09:22:00.534Z,9.747297
2022-10-24T09:23:00.534Z,9.747125
2022-10-24T09:24:00.517Z,9.747249
2022-10-24T09:25:00.546Z,9.747111
2022-10-24T09:26:00.510Z,9.747248
2022-10-24T09:27:00.494Z,9.747242
2022-10-24T09:28:00.492Z,9.747017
2022-10-24T09:29:00.476Z,9.746981
2022-10-24T09:30:00.496Z,9.747121
2022-10-24T09:31:00.463Z,9.747035
2022-10-24T09:32:00.460Z,9.747355
2022-10-24T09:33:00.458Z,9.747370
2022-10-24T09:34:00.495Z,9.747349
2022-10-24T09:35:00.483Z,9.747237
2022-10-24T09:36:00.426Z,9.747317
2022-10-24T09:37:00.424Z,9.747319
2022-10-24T09:38:00.413Z,9.747430
2022-10-24T09:39:00.403Z,9.747476
2022-10-24T09:40:00.496Z,9.747426
2022-10-24T09:41:00.385Z,9.747232
2022-10-24T09:42:00.377Z,9.747284
2022-10-24T09:43:00.384Z,9.747386
2022-10-24T09:44:00.366Z,9.747519
2022-10-24T09:45:00.394Z,9.747476
2022-10-24T09:46:00.351Z,9.747392
2022-10-24T09:47:00.353Z,9.747337
2022-10-24T09:48:00.441Z,9.747427
2022-10-24T09:49:00.328Z,9.747466
2022-10-24T09:50:00.333Z,9.747496
2022-10-24T09:51:00.475Z,9.747475
2022-10-24T09:52:00.336Z,9.747574
2022-10-24T09:53:00.302Z,9.747469
2022-10-24T09:54:00.291Z,9.747471
2022-10-24T09:55:00.285Z,9.747661
2022-10-24T09:56:00.303Z,9.747508
2022-10-24T09:57:00.268Z,9.747452
2022-10-24T09:58:00.271Z,9.747495
2022-10-24T09:59:00.259Z,9.747439
2022-10-24T10:00:00.249Z,9.747495
2022-10-24T10:01:00.340Z,9.747432
2022-10-24T10:02:00.407Z,9.747458
2022-10-24T10:03:00.231Z,9.747440
2022-10-24T10:04:01.284Z,9.747407
2022-10-24T10:05:00.221Z,9.747421
2022-10-24T10:06:00.695Z,9.747490
2022-10-24T10:07:00.215Z,9.747410
2022-10-24T10:08:00.183Z,9.747401
2022-10-24T10:09:00.173Z,9.747482
2022-10-24T10:10:00.161Z,9.747463
2022-10-24T10:11:00.181Z,9.747454
2022-10-24T10:12:03.538Z,9.747503
2022-10-24T10:13:01.143Z,9.747445
2022-10-24T10:14:00.590Z,9.747501
2022-10-24T10:15:00.668Z,9.747415
2022-10-24T10:16:00.274Z,9.747358
2022-10-24T10:17:00.226Z,9.747242
2022-10-24T10:18:00.115Z,9.747532
2022-10-24T10:19:00.120Z,9.747354
2022-10-24T10:20:00.109Z,9.747289
2022-10-24T10:21:00.113Z,9.747380
2022-10-24T10:22:01.102Z,9.747460
2022-10-24T10:23:00.072Z,9.747396
2022-10-24T10:24:00.081Z,9.747508
2022-10-24T10:25:00.062Z,9.747541
2022-10-24T10:26:00.119Z,9.747389
2022-10-24T10:27:00.037Z,9.747402
2022-10-24T10:28:02.399Z,9.747597
2022-10-24T10:29:00.029Z,9.747567
2022-10-24T10:30:00.016Z,9.747504
2022-10-24T10:31:00.058Z,9.747464
2022-10-24T10:32:00.007Z,9.747467
2022-10-24T10:32:59.998Z,9.747458
2022-10-24T10:33:59.990Z,9.747592
2022-10-24T10:35:00.001Z,9.747564
2022-10-24T10:36:00.033Z,9.747570
2022-10-24T10:36:59.974Z,9.747476
2022-10-24T10:37:59.966Z,9.747402
2022-10-24T10:38:59.991Z,9.747430
2022-10-24T10:39:59.945Z,9.747334
2022-10-24T10:40:59.963Z,9.747424
2022-10-24T10:41:59.937Z,9.747494
2022-10-24T10:42:59.938Z,9.747562
2022-10-24T10:43:59.923Z,9.747494
2022-10-24T10:44:59.913Z,9.747525
2022-10-24T10:45:59.931Z,9.747370
2022-10-24T10:46:59.894Z,9.747348
2022-10-24T10:47:59.904Z,9.747216
2022-10-24T10:48:59.886Z,9.747264
2022-10-24T10:49:59.875Z,9.747307
2022-10-24T10:51:00.554Z,9.747126
2022-10-24T10:51:59.849Z,9.747320
2022-10-24T10:52:59.857Z,9.747459
2022-10-24T10:53:59.857Z,9.747579
2022-10-24T10:54:59.845Z,9.747649
2022-10-24T10:55:59.875Z,9.747556
2022-10-24T10:56:59.815Z,9.747346
2022-10-24T10:57:59.818Z,9.747383
2022-10-24T10:58:59.816Z,9.747258
2022-10-24T10:59:59.810Z,9.747298
2022-10-24T11:00:59.877Z,9.747424
2022-10-24T11:01:59.879Z,9.747660
2022-10-24T11:02:59.782Z,9.747580
2022-10-24T11:03:59.778Z,9.747522
2022-10-24T11:04:59.766Z,9.747466
2022-10-24T11:05:59.756Z,9.747316
2022-10-24T11:07:59.744Z,9.747366
2022-10-24T11:08:59.745Z,9.747540
2022-10-24T11:09:59.743Z,9.747296
2022-10-24T11:10:59.721Z,9.747369
2022-10-24T11:11:59.750Z,9.747352
2022-10-24T11:12:59.742Z,9.747333
2022-10-24T11:13:59.693Z,9.747265
2022-10-24T11:14:59.680Z,9.747303
2022-10-24T11:15:59.684Z,9.747295
2022-10-24T11:16:59.701Z,9.747327
2022-10-24T11:17:59.670Z,9.747402
2022-10-24T11:18:59.670Z,9.747419
2022-10-24T11:19:59.645Z,9.747343
2022-10-24T11:20:59.651Z,9.747337
2022-10-24T11:21:59.652Z,9.747264
2022-10-24T11:22:59.637Z,9.747241
2022-10-24T11:23:59.627Z,9.747370
2022-10-24T11:24:59.609Z,9.747360
2022-10-24T11:25:59.612Z,9.747403
2022-10-24T11:26:59.633Z,9.747339
2022-10-24T11:27:59.608Z,9.747397
2022-10-24T11:28:59.588Z,9.747499
2022-10-24T11:29:59.575Z,9.747285
2022-10-24T11:30:59.563Z,9.747390
2022-10-24T11:31:59.652Z,9.747281
2022-10-24T11:32:59.571Z,9.747238
2022-10-24T11:33:59.572Z,9.747279
2022-10-24T11:34:59.548Z,9.747361
2022-10-24T11:35:59.591Z,9.747313
2022-10-24T11:36:59.531Z,9.747254
2022-10-24T11:37:59.517Z,9.747354
2022-10-24T11:38:59.525Z,9.747380
2022-10-24T11:39:59.507Z,9.747298
2022-10-24T11:41:00.740Z,9.747349
2022-10-24T11:41:59.499Z,9.747246
2022-10-24T11:42:59.481Z,9.747319
2022-10-24T11:43:59.478Z,9.747250
2022-10-24T11:44:59.477Z,9.747409
2022-10-24T11:45:59.472Z,9.747388
2022-10-24T11:47:02.987Z,9.747244
2022-10-24T11:48:01.435Z,9.747384
2022-10-24T11:48:59.434Z,9.747352
2022-10-24T11:49:59.402Z,9.747267
2022-10-24T11:50:59.426Z,9.747262
2022-10-24T11:52:04.108Z,9.747269